createdAt,value
2019-03-19T00:00:26.662Z,0.00
2019-03-19T00:01:26.629Z,0.00
2019-03-19T00:02:26.627Z,0.00
2019-03-19T00:03:26.599Z,0.00
2019-03-19T00:04:26.588Z,0.00
2019-03-19T00:05:26.579Z,0.00
2019-03-19T00:06:26.961Z,0.00
2019-03-19T00:07:26.557Z,0.00
2019-03-19T00:08:26.567Z,0.00
2019-03-19T00:09:26.535Z,0.00
2019-03-19T00:10:26.524Z,0.00
2019-03-19T00:11:26.526Z,0.00
2019-03-19T00:12:26.503Z,0.00
2019-03-19T00:13:26.493Z,0.00
2019-03-19T00:14:26.483Z,0.00
2019-03-19T00:15:26.472Z,0.00
2019-03-19T00:16:26.474Z,0.00
2019-03-19T00:17:26.450Z,0.00
2019-03-19T00:18:26.439Z,0.00
2019-03-19T00:19:26.432Z,0.00
2019-03-19T00:20:26.433Z,0.00
2019-03-19T00:21:26.414Z,0.00
2019-03-19T00:22:26.396Z,0.00
2019-03-19T00:23:26.384Z,0.00
2019-03-19T00:24:26.375Z,0.00
2019-03-19T00:25:30.244Z,0.00
2019-03-19T00:26:26.363Z,0.00
2019-03-19T00:27:26.344Z,0.00
2019-03-19T00:28:26.339Z,0.00
2019-03-19T00:29:26.339Z,0.00
2019-03-19T00:30:26.311Z,0.00
2019-03-19T00:31:26.309Z,0.00
2019-03-19T00:32:26.290Z,0.00
2019-03-19T00:33:26.278Z,0.00
2019-03-19T00:34:26.269Z,0.00
2019-03-19T00:35:26.258Z,0.00
2019-03-19T00:36:26.264Z,0.00
2019-03-19T00:37:26.235Z,0.00
2019-03-19T00:38:26.225Z,0.00
2019-03-19T00:39:26.214Z,0.00
2019-03-19T00:40:26.204Z,0.00
2019-03-19T00:41:26.203Z,0.00
2019-03-19T00:42:26.192Z,0.00
2019-03-19T00:43:26.173Z,0.00
2019-03-19T00:44:26.164Z,0.00
2019-03-19T00:45:26.150Z,0.00
2019-03-19T00:46:26.191Z,0.00
2019-03-19T00:47:26.131Z,0.00
2019-03-19T00:48:26.121Z,0.00
2019-03-19T00:49:26.108Z,0.00
2019-03-19T00:50:26.097Z,0.00
2019-03-19T00:51:26.103Z,0.00
2019-03-19T00:52:26.077Z,0.00
2019-03-19T00:53:26.065Z,0.00
2019-03-19T00:54:26.055Z,0.00
2019-03-19T00:55:26.044Z,0.00
2019-03-19T00:56:26.045Z,0.00
2019-03-19T00:57:26.072Z,0.00
2019-03-19T00:58:26.011Z,0.00
2019-03-19T00:59:26.000Z,0.00
2019-03-19T01:00:25.989Z,0.00
2019-03-19T01:01:25.994Z,0.00
2019-03-19T01:02:25.969Z,0.00
2019-03-19T01:03:25.957Z,0.00
2019-03-19T01:04:25.952Z,0.00
2019-03-19T01:05:25.937Z,0.00
2019-03-19T01:06:25.951Z,0.00
2019-03-19T01:07:25.914Z,0.00
2019-03-19T01:08:25.905Z,0.00
2019-03-19T01:09:25.894Z,0.00
2019-03-19T01:10:25.949Z,0.00
2019-03-19T01:11:25.871Z,0.00
2019-03-19T01:12:25.871Z,0.00
2019-03-19T01:13:25.851Z,0.00
2019-03-19T01:14:25.841Z,0.00
2019-03-19T01:15:25.832Z,0.00
2019-03-19T01:16:25.822Z,0.00
2019-03-19T01:17:26.398Z,0.00
2019-03-19T01:18:25.798Z,0.00
2019-03-19T01:19:25.786Z,0.00
2019-03-19T01:20:25.777Z,0.00
2019-03-19T01:21:25.768Z,0.00
2019-03-19T01:22:25.794Z,0.00
2019-03-19T01:23:25.744Z,0.00
2019-03-19T01:24:25.734Z,0.00
2019-03-19T01:25:25.737Z,0.00
2019-03-19T01:26:25.716Z,0.00
2019-03-19T01:27:25.746Z,0.00
2019-03-19T01:28:25.728Z,0.00
2019-03-19T01:29:25.680Z,0.00
2019-03-19T01:30:25.673Z,0.00
2019-03-19T01:31:25.691Z,0.00
2019-03-19T01:32:25.657Z,0.00
2019-03-19T01:33:25.638Z,0.00
2019-03-19T01:34:25.626Z,0.00
2019-03-19T01:35:25.617Z,0.00
2019-03-19T01:36:25.606Z,0.00
2019-03-19T01:37:25.606Z,0.00
2019-03-19T01:38:25.628Z,0.00
2019-03-19T01:39:25.574Z,0.00
2019-03-19T01:40:25.565Z,0.00
2019-03-19T01:41:25.553Z,0.00
2019-03-19T01:42:25.608Z,0.00
2019-03-19T01:43:25.533Z,0.00
2019-03-19T01:44:25.521Z,0.00
2019-03-19T01:45:25.516Z,0.00
2019-03-19T01:46:25.502Z,0.00
2019-03-19T01:47:25.496Z,0.00
2019-03-19T01:48:25.480Z,0.00
2019-03-19T01:49:25.474Z,0.00
2019-03-19T01:50:25.460Z,0.00
2019-03-19T01:51:25.449Z,0.00
2019-03-19T01:52:25.447Z,0.00
2019-03-19T01:53:25.426Z,0.00
2019-03-19T01:54:25.416Z,0.00
2019-03-19T01:55:25.706Z,0.00
2019-03-19T01:56:25.394Z,0.00
2019-03-19T01:57:25.397Z,0.00
2019-03-19T01:58:25.374Z,0.00
2019-03-19T01:59:25.365Z,0.00
2019-03-19T02:00:25.353Z,0.00
2019-03-19T02:01:25.379Z,0.00
2019-03-19T02:02:25.356Z,0.00
2019-03-19T02:03:25.385Z,0.00
2019-03-19T02:04:25.309Z,0.00
2019-03-19T02:05:25.354Z,0.00
2019-03-19T02:06:25.287Z,0.00
2019-03-19T02:07:25.286Z,0.00
2019-03-19T02:08:25.267Z,0.00
2019-03-19T02:09:25.291Z,0.00
2019-03-19T02:10:25.248Z,0.00
2019-03-19T02:11:25.234Z,0.00
2019-03-19T02:12:25.247Z,0.00
2019-03-19T02:13:25.223Z,0.00
2019-03-19T02:14:25.204Z,0.00
2019-03-19T02:15:25.191Z,0.00
2019-03-19T02:16:25.194Z,0.00
2019-03-19T02:17:25.191Z,0.00
2019-03-19T02:18:25.165Z,0.00
2019-03-19T02:19:25.192Z,0.00
2019-03-19T02:20:25.160Z,0.00
2019-03-19T02:21:25.128Z,0.00
2019-03-19T02:22:25.125Z,0.00
2019-03-19T02:23:25.106Z,0.00
2019-03-19T02:24:25.095Z,0.00
2019-03-19T02:25:25.085Z,0.00
2019-03-19T02:26:25.081Z,0.00
2019-03-19T02:27:25.071Z,0.00
2019-03-19T02:28:25.053Z,0.00
2019-03-19T02:29:25.042Z,0.00
2019-03-19T02:30:25.034Z,0.00
2019-03-19T02:31:25.023Z,0.00
2019-03-19T02:32:25.019Z,0.00
2019-03-19T02:33:25.000Z,0.00
2019-03-19T02:34:24.989Z,0.00
2019-03-19T02:35:24.983Z,0.00
2019-03-19T02:36:24.974Z,0.00
2019-03-19T02:37:24.964Z,0.00
2019-03-19T02:38:24.946Z,0.00
2019-03-19T02:39:24.935Z,0.00
2019-03-19T02:40:24.934Z,0.00
2019-03-19T02:41:24.930Z,0.00
2019-03-19T02:42:24.916Z,0.00
2019-03-19T02:43:24.965Z,0.00
2019-03-19T02:44:24.882Z,0.00
2019-03-19T02:45:24.884Z,0.00
2019-03-19T02:46:24.863Z,0.00
2019-03-19T02:47:24.859Z,0.00
2019-03-19T02:48:24.851Z,0.00
2019-03-19T02:49:24.833Z,0.00
2019-03-19T02:50:24.818Z,0.00
2019-03-19T02:51:24.806Z,0.00
2019-03-19T02:52:24.813Z,0.00
2019-03-19T02:53:24.788Z,0.00
2019-03-19T02:54:24.787Z,0.00
2019-03-19T02:55:24.766Z,0.00
2019-03-19T02:56:32.594Z,0.00
2019-03-19T02:57:25.763Z,0.00
2019-03-19T02:58:24.733Z,0.00
2019-03-19T02:59:24.720Z,0.00
2019-03-19T03:00:24.710Z,0.00
2019-03-19T03:01:24.701Z,0.00
2019-03-19T03:02:24.739Z,0.00
2019-03-19T03:03:24.683Z,0.00
2019-03-19T03:04:24.672Z,0.00
2019-03-19T03:05:24.680Z,0.00
2019-03-19T03:06:24.658Z,0.00
2019-03-19T03:07:24.648Z,0.00
2019-03-19T03:08:24.628Z,0.00
2019-03-19T03:09:24.643Z,0.00
2019-03-19T03:10:24.607Z,0.00
2019-03-19T03:11:24.609Z,0.00
2019-03-19T03:12:24.596Z,0.00
2019-03-19T03:13:24.572Z,0.00
2019-03-19T03:14:24.576Z,0.00
2019-03-19T03:15:24.577Z,0.00
2019-03-19T03:16:24.551Z,0.00
2019-03-19T03:17:24.579Z,0.00
2019-03-19T03:18:24.525Z,0.00
2019-03-19T03:19:24.555Z,0.00
2019-03-19T03:20:24.502Z,0.00
2019-03-19T03:21:24.502Z,0.00
2019-03-19T03:22:24.515Z,0.00
2019-03-19T03:23:24.468Z,0.00
2019-03-19T03:24:24.455Z,0.00
2019-03-19T03:25:24.445Z,0.00
2019-03-19T03:26:24.437Z,0.00
2019-03-19T03:27:24.433Z,0.00
2019-03-19T03:28:24.414Z,0.00
2019-03-19T03:29:24.404Z,0.00
2019-03-19T03:30:24.541Z,0.00
2019-03-19T03:31:24.388Z,0.00
2019-03-19T03:32:24.401Z,0.00
2019-03-19T03:33:24.365Z,0.00
2019-03-19T03:34:24.357Z,0.00
2019-03-19T03:35:24.338Z,0.00
2019-03-19T03:36:24.351Z,0.00
2019-03-19T03:37:24.317Z,0.00
2019-03-19T03:38:24.320Z,0.00
2019-03-19T03:39:24.299Z,0.00
2019-03-19T03:40:24.312Z,0.00
2019-03-19T03:41:24.309Z,0.00
2019-03-19T03:42:24.284Z,0.00
2019-03-19T03:43:24.265Z,0.00
2019-03-19T03:44:24.242Z,0.00
2019-03-19T03:45:24.235Z,0.00
2019-03-19T03:46:24.226Z,0.00
2019-03-19T03:47:24.212Z,0.00
2019-03-19T03:48:24.225Z,0.00
2019-03-19T03:49:24.211Z,0.00
2019-03-19T03:50:24.178Z,0.00
2019-03-19T03:51:24.168Z,0.00
2019-03-19T03:52:24.174Z,0.00
2019-03-19T03:53:24.160Z,0.00
2019-03-19T03:54:24.139Z,0.00
2019-03-19T03:55:24.143Z,0.00
2019-03-19T03:56:24.130Z,0.00
2019-03-19T03:57:24.118Z,0.00
2019-03-19T03:58:24.194Z,0.00
2019-03-19T03:59:24.084Z,0.00
2019-03-19T04:00:24.149Z,0.00
2019-03-19T04:01:24.069Z,0.00
2019-03-19T04:02:24.057Z,0.00
2019-03-19T04:03:24.053Z,0.00
2019-03-19T04:04:24.031Z,0.00
2019-03-19T04:05:24.030Z,0.00
2019-03-19T04:06:24.016Z,0.00
2019-03-19T04:07:23.999Z,0.00
2019-03-19T04:08:23.996Z,0.00
2019-03-19T04:09:24.013Z,0.00
2019-03-19T04:10:23.966Z,0.00
2019-03-19T04:11:23.955Z,0.00
2019-03-19T04:12:23.946Z,0.00
2019-03-19T04:13:23.961Z,0.00
2019-03-19T04:14:23.924Z,0.00
2019-03-19T04:15:23.924Z,0.00
2019-03-19T04:16:23.903Z,0.00
2019-03-19T04:17:23.892Z,0.00
2019-03-19T04:18:23.907Z,0.00
2019-03-19T04:19:23.873Z,0.00
2019-03-19T04:20:23.877Z,0.00
2019-03-19T04:21:23.869Z,0.00
2019-03-19T04:22:23.839Z,0.00
2019-03-19T04:23:23.841Z,0.00
2019-03-19T04:24:23.818Z,0.00
2019-03-19T04:25:23.809Z,0.00
2019-03-19T04:26:23.797Z,0.00
2019-03-19T04:27:23.787Z,0.00
2019-03-19T04:28:23.785Z,0.00
2019-03-19T04:29:23.772Z,0.00
2019-03-19T04:30:23.765Z,0.00
2019-03-19T04:31:23.744Z,0.00
2019-03-19T04:32:23.739Z,0.00
2019-03-19T04:33:23.757Z,0.00
2019-03-19T04:34:23.716Z,0.00
2019-03-19T04:35:23.704Z,0.00
2019-03-19T04:36:23.690Z,0.00
2019-03-19T04:37:23.693Z,0.00
2019-03-19T04:38:23.682Z,0.00
2019-03-19T04:39:23.659Z,0.00
2019-03-19T04:40:23.652Z,0.00
2019-03-19T04:41:23.647Z,0.00
2019-03-19T04:42:23.627Z,4.00
2019-03-19T04:43:23.625Z,0.00
2019-03-19T04:44:23.625Z,0.00
2019-03-19T04:45:23.595Z,4.00
2019-03-19T04:46:23.583Z,0.00
2019-03-19T04:47:23.573Z,4.00
2019-03-19T04:48:23.571Z,4.00
2019-03-19T04:49:23.552Z,4.00
2019-03-19T04:50:23.541Z,4.00
2019-03-19T04:51:23.538Z,4.00
2019-03-19T04:52:23.520Z,8.00
2019-03-19T04:53:24.353Z,8.00
2019-03-19T04:54:23.498Z,8.00
2019-03-19T04:55:23.502Z,12.00
2019-03-19T04:56:23.478Z,12.00
2019-03-19T04:57:26.951Z,16.00
2019-03-19T04:58:23.469Z,16.00
2019-03-19T04:59:23.452Z,20.00
2019-03-19T05:00:23.437Z,20.00
2019-03-19T05:01:23.425Z,24.00
2019-03-19T05:02:23.413Z,24.00
2019-03-19T05:03:23.411Z,28.00
2019-03-19T05:04:23.402Z,32.00
2019-03-19T05:05:23.381Z,32.00
2019-03-19T05:06:23.371Z,40.00
2019-03-19T05:07:23.360Z,40.00
2019-03-19T05:08:23.363Z,48.00
2019-03-19T05:09:23.342Z,44.00
2019-03-19T05:10:23.337Z,48.00
2019-03-19T05:11:23.331Z,48.00
2019-03-19T05:12:23.308Z,48.00
2019-03-19T05:13:23.304Z,56.00
2019-03-19T05:14:23.291Z,60.00
2019-03-19T05:15:23.276Z,68.00
2019-03-19T05:16:23.265Z,76.00
2019-03-19T05:17:23.263Z,84.00
2019-03-19T05:18:23.253Z,80.00
2019-03-19T05:19:23.236Z,80.00
2019-03-19T05:20:23.226Z,92.00
2019-03-19T05:21:23.216Z,104.00
2019-03-19T05:22:23.204Z,112.00
2019-03-19T05:23:23.198Z,120.00
2019-03-19T05:24:23.183Z,144.00
2019-03-19T05:25:23.171Z,168.00
2019-03-19T05:26:23.160Z,172.00
2019-03-19T05:27:23.157Z,204.00
2019-03-19T05:28:23.154Z,268.00
2019-03-19T05:29:23.126Z,336.00
2019-03-19T05:30:23.115Z,396.00
2019-03-19T05:31:23.106Z,452.00
2019-03-19T05:32:23.094Z,468.00
2019-03-19T05:33:23.101Z,476.00
2019-03-19T05:34:23.076Z,488.00
2019-03-19T05:35:23.065Z,480.00
2019-03-19T05:36:23.051Z,464.00
2019-03-19T05:37:23.042Z,464.00
2019-03-19T05:38:23.041Z,480.00
2019-03-19T05:39:23.036Z,508.00
2019-03-19T05:40:23.008Z,532.00
2019-03-19T05:41:23.000Z,548.00
2019-03-19T05:42:22.988Z,592.00
2019-03-19T05:43:22.977Z,636.00
2019-03-19T05:44:22.980Z,676.00
2019-03-19T05:45:22.955Z,748.00
2019-03-19T05:46:22.946Z,800.00
2019-03-19T05:47:22.935Z,848.00
2019-03-19T05:48:22.923Z,820.00
2019-03-19T05:49:22.927Z,736.00
2019-03-19T05:50:22.903Z,672.00
2019-03-19T05:51:22.892Z,692.00
2019-03-19T05:52:22.880Z,744.00
2019-03-19T05:53:22.871Z,864.00
2019-03-19T05:54:22.867Z,940.00
2019-03-19T05:55:22.849Z,924.00
2019-03-19T05:56:22.840Z,976.00
2019-03-19T05:57:22.827Z,976.00
2019-03-19T05:58:22.815Z,988.00
2019-03-19T05:59:22.817Z,960.00
2019-03-19T06:00:22.796Z,1028.00
2019-03-19T06:01:22.784Z,1120.00
2019-03-19T06:02:22.777Z,1172.00
2019-03-19T06:03:22.764Z,1228.00
2019-03-19T06:04:22.762Z,1360.00
2019-03-19T06:05:22.743Z,1508.00
2019-03-19T06:06:22.732Z,1640.00
2019-03-19T06:07:22.723Z,1808.00
2019-03-19T06:08:22.713Z,1988.00
2019-03-19T06:09:22.708Z,2220.00
2019-03-19T06:10:22.688Z,2416.00
2019-03-19T06:11:22.678Z,2612.00
2019-03-19T06:12:22.667Z,2840.00
2019-03-19T06:13:22.656Z,3176.00
2019-03-19T06:14:22.653Z,3356.00
2019-03-19T06:15:22.649Z,3688.00
2019-03-19T06:16:22.622Z,4024.00
2019-03-19T06:17:22.612Z,4260.00
2019-03-19T06:18:22.645Z,4492.00
2019-03-19T06:19:22.598Z,4840.00
2019-03-19T06:20:22.580Z,4972.00
2019-03-19T06:21:22.570Z,5232.00
2019-03-19T06:22:22.561Z,5580.00
2019-03-19T06:23:22.547Z,5544.00
2019-03-19T06:24:22.544Z,5512.00
2019-03-19T06:25:22.526Z,5500.00
2019-03-19T06:26:22.513Z,5808.00
2019-03-19T06:27:22.504Z,6080.00
2019-03-19T06:28:22.492Z,6520.00
2019-03-19T06:29:22.493Z,6960.00
2019-03-19T06:30:22.471Z,7716.00
2019-03-19T06:31:22.459Z,7444.00
2019-03-19T06:32:22.450Z,7712.00
2019-03-19T06:33:22.438Z,7480.00
2019-03-19T06:34:22.436Z,7284.00
2019-03-19T06:35:22.423Z,7352.00
2019-03-19T06:36:22.407Z,11300.00
2019-03-19T06:37:22.401Z,10296.00
2019-03-19T06:38:22.384Z,8580.00
2019-03-19T06:39:22.382Z,10780.00
2019-03-19T06:40:22.363Z,9680.00
2019-03-19T06:41:22.351Z,9936.00
2019-03-19T06:42:22.342Z,8160.00
2019-03-19T06:43:22.333Z,10916.00
2019-03-19T06:44:22.328Z,11064.00
2019-03-19T06:45:23.168Z,14720.00
2019-03-19T06:46:22.303Z,13972.00
2019-03-19T06:47:22.288Z,14656.00
2019-03-19T06:48:22.277Z,22912.00
2019-03-19T06:49:22.278Z,25056.00
2019-03-19T06:50:22.254Z,22208.00
2019-03-19T06:51:22.243Z,25120.00
2019-03-19T06:52:22.233Z,25280.00
2019-03-19T06:53:22.227Z,28768.00
2019-03-19T06:54:22.220Z,31392.00
2019-03-19T06:55:22.202Z,33088.00
2019-03-19T06:56:22.189Z,26272.00
2019-03-19T06:57:22.180Z,21088.00
2019-03-19T06:58:22.167Z,28768.00
2019-03-19T06:59:22.168Z,28064.00
2019-03-19T07:00:22.211Z,34976.00
2019-03-19T07:01:22.134Z,35968.00
2019-03-19T07:02:22.122Z,18912.00
2019-03-19T07:03:22.111Z,18336.00
2019-03-19T07:04:22.109Z,32704.00
2019-03-19T07:05:22.096Z,12348.00
2019-03-19T07:06:22.083Z,30208.00
2019-03-19T07:07:22.069Z,6560.00
2019-03-19T07:08:22.062Z,32832.00
2019-03-19T07:09:22.057Z,30752.00
2019-03-19T07:10:22.036Z,21600.00
2019-03-19T07:11:22.026Z,18336.00
2019-03-19T07:12:22.014Z,5804.00
2019-03-19T07:13:22.004Z,11208.00
2019-03-19T07:14:22.003Z,27392.00
2019-03-19T07:15:21.986Z,26144.00
2019-03-19T07:16:21.971Z,31616.00
2019-03-19T07:17:21.960Z,23744.00
2019-03-19T07:18:21.949Z,24640.00
2019-03-19T07:19:21.952Z,10980.00
2019-03-19T07:20:21.926Z,30112.00
2019-03-19T07:21:21.918Z,7688.00
2019-03-19T07:22:21.905Z,16640.00
2019-03-19T07:23:21.895Z,15584.00
2019-03-19T07:24:21.893Z,18336.00
2019-03-19T07:25:21.871Z,8708.00
2019-03-19T07:26:21.862Z,16896.00
2019-03-19T07:27:21.850Z,13944.00
2019-03-19T07:28:22.509Z,14976.00
2019-03-19T07:29:21.837Z,9884.00
2019-03-19T07:30:21.817Z,12192.00
2019-03-19T07:31:30.368Z,10784.00
2019-03-19T07:32:22.794Z,13596.00
2019-03-19T07:33:21.788Z,16480.00
2019-03-19T07:34:21.784Z,8620.00
2019-03-19T07:35:21.761Z,8348.00
2019-03-19T07:36:21.751Z,20000.00
2019-03-19T07:37:21.741Z,23520.00
2019-03-19T07:38:21.730Z,21600.00
2019-03-19T07:39:21.728Z,15712.00
2019-03-19T07:40:21.707Z,12408.00
2019-03-19T07:41:21.697Z,11692.00
2019-03-19T07:42:21.687Z,11820.00
2019-03-19T07:43:21.677Z,15456.00
2019-03-19T07:44:21.828Z,24064.00
2019-03-19T07:45:21.653Z,21920.00
2019-03-19T07:46:21.643Z,23104.00
2019-03-19T07:47:21.631Z,23168.00
2019-03-19T07:48:21.619Z,28320.00
2019-03-19T07:49:21.617Z,29216.00
2019-03-19T07:50:21.597Z,26784.00
2019-03-19T07:51:21.589Z,24928.00
2019-03-19T07:52:21.582Z,20576.00
2019-03-19T07:53:21.566Z,17600.00
2019-03-19T07:54:21.577Z,22976.00
2019-03-19T07:55:21.544Z,21120.00
2019-03-19T07:56:21.537Z,23648.00
2019-03-19T07:57:21.523Z,32864.00
2019-03-19T07:58:32.666Z,29440.00
2019-03-19T07:59:22.522Z,26240.00
2019-03-19T08:00:21.487Z,15140.00
2019-03-19T08:01:21.479Z,9700.00
2019-03-19T08:02:21.466Z,10064.00
2019-03-19T08:03:21.458Z,6700.00
2019-03-19T08:04:21.444Z,6512.00
2019-03-19T08:05:32.225Z,10300.00
2019-03-19T08:06:22.423Z,10552.00
2019-03-19T08:07:21.410Z,14172.00
2019-03-19T08:08:21.406Z,13556.00
2019-03-19T08:09:21.410Z,14620.00
2019-03-19T08:10:21.390Z,11192.00
2019-03-19T08:11:21.374Z,9496.00
2019-03-19T08:12:21.356Z,7840.00
2019-03-19T08:13:21.345Z,9908.00
2019-03-19T08:14:21.342Z,9392.00
2019-03-19T08:15:21.333Z,7888.00
2019-03-19T08:16:27.350Z,7692.00
2019-03-19T08:17:22.302Z,7700.00
2019-03-19T08:18:21.296Z,6624.00
2019-03-19T08:19:21.288Z,7688.00
2019-03-19T08:20:21.282Z,6644.00
2019-03-19T08:21:22.578Z,5236.00
2019-03-19T08:22:21.249Z,4392.00
2019-03-19T08:23:21.238Z,4696.00
2019-03-19T08:24:21.225Z,4172.00
2019-03-19T08:25:21.224Z,4104.00
2019-03-19T08:26:21.204Z,3868.00
2019-03-19T08:27:21.192Z,4160.00
2019-03-19T08:28:21.187Z,4292.00
2019-03-19T08:29:21.172Z,4228.00
2019-03-19T08:30:21.176Z,4020.00
2019-03-19T08:31:21.150Z,4044.00
2019-03-19T08:32:21.143Z,3572.00
2019-03-19T08:33:21.131Z,3228.00
2019-03-19T08:34:21.118Z,3260.00
2019-03-19T08:35:21.117Z,4864.00
2019-03-19T08:36:21.098Z,5944.00
2019-03-19T08:37:21.085Z,5512.00
2019-03-19T08:38:21.082Z,5652.00
2019-03-19T08:39:21.066Z,5468.00
2019-03-19T08:40:21.065Z,5412.00
2019-03-19T08:41:21.044Z,6372.00
2019-03-19T08:42:21.032Z,6620.00
2019-03-19T08:43:21.024Z,6172.00
2019-03-19T08:44:27.752Z,6256.00
2019-03-19T08:45:22.007Z,6392.00
2019-03-19T08:46:20.990Z,5752.00
2019-03-19T08:47:20.978Z,5876.00
2019-03-19T08:48:20.972Z,5804.00
2019-03-19T08:49:22.336Z,6392.00
2019-03-19T08:50:20.959Z,5636.00
2019-03-19T08:51:20.940Z,6432.00
2019-03-19T08:52:20.927Z,5584.00
2019-03-19T08:53:20.974Z,6816.00
2019-03-19T08:54:20.903Z,6036.00
2019-03-19T08:55:20.904Z,6380.00
2019-03-19T08:56:20.881Z,5460.00
2019-03-19T08:57:20.872Z,5172.00
2019-03-19T08:58:20.864Z,4876.00
2019-03-19T08:59:20.851Z,5168.00
2019-03-19T09:00:20.855Z,5496.00
2019-03-19T09:01:20.830Z,5388.00
2019-03-19T09:02:20.818Z,5548.00
2019-03-19T09:03:20.811Z,5640.00
2019-03-19T09:04:20.797Z,6208.00
2019-03-19T09:05:20.797Z,6664.00
2019-03-19T09:06:20.776Z,5056.00
2019-03-19T09:07:20.768Z,5836.00
2019-03-19T09:08:20.754Z,5692.00
2019-03-19T09:09:20.744Z,5048.00
2019-03-19T09:10:20.740Z,4948.00
2019-03-19T09:11:20.724Z,4968.00
2019-03-19T09:12:20.713Z,5888.00
2019-03-19T09:13:20.706Z,5864.00
2019-03-19T09:14:20.699Z,6028.00
2019-03-19T09:15:20.689Z,4940.00
2019-03-19T09:16:20.668Z,4860.00
2019-03-19T09:17:20.659Z,5060.00
2019-03-19T09:18:20.648Z,6092.00
2019-03-19T09:19:20.636Z,5040.00
2019-03-19T09:20:20.635Z,4940.00
2019-03-19T09:21:20.615Z,4912.00
2019-03-19T09:22:20.926Z,5244.00
2019-03-19T09:23:20.628Z,5024.00
2019-03-19T09:24:20.597Z,6924.00
2019-03-19T09:25:20.582Z,6316.00
2019-03-19T09:26:20.565Z,5772.00
2019-03-19T09:27:20.551Z,5676.00
2019-03-19T09:28:20.540Z,5888.00
2019-03-19T09:29:20.542Z,5324.00
2019-03-19T09:30:20.531Z,5228.00
2019-03-19T09:31:20.507Z,4940.00
2019-03-19T09:32:20.542Z,4504.00
2019-03-19T09:33:20.486Z,4400.00
2019-03-19T09:34:20.480Z,4512.00
2019-03-19T09:35:20.478Z,4596.00
2019-03-19T09:36:20.454Z,4412.00
2019-03-19T09:37:20.442Z,4204.00
2019-03-19T09:38:20.431Z,4012.00
2019-03-19T09:39:20.464Z,3924.00
2019-03-19T09:40:20.419Z,4008.00
2019-03-19T09:41:20.399Z,4044.00
2019-03-19T09:42:20.393Z,4240.00
2019-03-19T09:43:20.378Z,4320.00
2019-03-19T09:44:20.368Z,4124.00
2019-03-19T09:45:20.366Z,3780.00
2019-03-19T09:46:20.347Z,3576.00
2019-03-19T09:47:20.338Z,3392.00
2019-03-19T09:48:20.331Z,3264.00
2019-03-19T09:49:21.187Z,3276.00
2019-03-19T09:50:20.319Z,3396.00
2019-03-19T09:51:20.292Z,3616.00
2019-03-19T09:52:20.287Z,3792.00
2019-03-19T09:53:20.272Z,3740.00
2019-03-19T09:54:20.259Z,4316.00
2019-03-19T09:55:20.256Z,3500.00
2019-03-19T09:56:20.241Z,3396.00
2019-03-19T09:57:20.230Z,3312.00
2019-03-19T09:58:20.219Z,3380.00
2019-03-19T09:59:27.176Z,3372.00
2019-03-19T10:00:21.204Z,3408.00
2019-03-19T10:01:20.184Z,3352.00
2019-03-19T10:02:20.180Z,3276.00
2019-03-19T10:03:20.163Z,3272.00
2019-03-19T10:04:20.154Z,3392.00
2019-03-19T10:05:20.176Z,3288.00
2019-03-19T10:06:20.130Z,3208.00
2019-03-19T10:07:20.121Z,3176.00
2019-03-19T10:08:20.112Z,3236.00
2019-03-19T10:09:20.098Z,3344.00
2019-03-19T10:10:20.090Z,5660.00
2019-03-19T10:11:20.085Z,3672.00
2019-03-19T10:12:20.067Z,4868.00
2019-03-19T10:13:20.057Z,3948.00
2019-03-19T10:14:20.046Z,4108.00
2019-03-19T10:15:20.034Z,4296.00
2019-03-19T10:16:20.031Z,4512.00
2019-03-19T10:17:20.011Z,4572.00
2019-03-19T10:18:20.000Z,4540.00
2019-03-19T10:19:19.990Z,4544.00
2019-03-19T10:20:19.980Z,4484.00
2019-03-19T10:21:19.978Z,4180.00
2019-03-19T10:22:19.957Z,4152.00
2019-03-19T10:23:19.948Z,3704.00
2019-03-19T10:24:19.938Z,3800.00
2019-03-19T10:25:19.925Z,3916.00
2019-03-19T10:26:19.922Z,3964.00
2019-03-19T10:27:19.904Z,3992.00
2019-03-19T10:28:19.893Z,4108.00
2019-03-19T10:29:19.882Z,4124.00
2019-03-19T10:30:19.870Z,4136.00
2019-03-19T10:31:19.869Z,5144.00
2019-03-19T10:32:19.850Z,4080.00
2019-03-19T10:33:19.854Z,4128.00
2019-03-19T10:34:19.829Z,4124.00
2019-03-19T10:35:19.830Z,4028.00
2019-03-19T10:36:19.814Z,3972.00
2019-03-19T10:37:19.796Z,4112.00
2019-03-19T10:38:19.784Z,4192.00
2019-03-19T10:39:19.776Z,4236.00
2019-03-19T10:40:19.767Z,4268.00
2019-03-19T10:41:19.762Z,4268.00
2019-03-19T10:42:19.742Z,4260.00
2019-03-19T10:43:19.731Z,4116.00
2019-03-19T10:44:19.722Z,4040.00
2019-03-19T10:45:19.710Z,4048.00
2019-03-19T10:46:19.706Z,4016.00
2019-03-19T10:47:19.691Z,5824.00
2019-03-19T10:48:19.678Z,3936.00
2019-03-19T10:49:19.665Z,3820.00
2019-03-19T10:50:19.654Z,3684.00
2019-03-19T10:51:19.651Z,3504.00
2019-03-19T10:52:19.633Z,3536.00
2019-03-19T10:53:19.622Z,3616.00
2019-03-19T10:54:19.610Z,6036.00
2019-03-19T10:55:19.599Z,6132.00
2019-03-19T10:56:19.598Z,6280.00
2019-03-19T10:57:19.579Z,4112.00
2019-03-19T10:58:19.567Z,4296.00
2019-03-19T10:59:19.558Z,5348.00
2019-03-19T11:00:19.548Z,4320.00
2019-03-19T11:01:19.544Z,3884.00
2019-03-19T11:02:19.523Z,3716.00
2019-03-19T11:03:19.516Z,3656.00
2019-03-19T11:04:19.509Z,3612.00
2019-03-19T11:05:19.497Z,3524.00
2019-03-19T11:06:19.491Z,3484.00
2019-03-19T11:07:19.474Z,3528.00
2019-03-19T11:08:19.461Z,3636.00
2019-03-19T11:09:19.449Z,3968.00
2019-03-19T11:10:19.440Z,5460.00
2019-03-19T11:11:19.436Z,3524.00
2019-03-19T11:12:19.416Z,3352.00
2019-03-19T11:13:19.409Z,3356.00
2019-03-19T11:14:19.394Z,3484.00
2019-03-19T11:15:19.385Z,3208.00
2019-03-19T11:16:19.384Z,3256.00
2019-03-19T11:17:19.362Z,3336.00
2019-03-19T11:18:19.350Z,3516.00
2019-03-19T11:19:19.340Z,3596.00
2019-03-19T11:20:19.328Z,3592.00
2019-03-19T11:21:19.331Z,3712.00
2019-03-19T11:22:19.309Z,6228.00
2019-03-19T11:23:19.296Z,4748.00
2019-03-19T11:24:19.289Z,3572.00
2019-03-19T11:25:19.276Z,3492.00
2019-03-19T11:26:19.278Z,3692.00
2019-03-19T11:27:19.253Z,4024.00
2019-03-19T11:28:19.249Z,4016.00
2019-03-19T11:29:19.233Z,4248.00
2019-03-19T11:30:19.222Z,3712.00
2019-03-19T11:31:19.219Z,3752.00
2019-03-19T11:32:19.203Z,3820.00
2019-03-19T11:33:19.188Z,4136.00
2019-03-19T11:34:19.179Z,4268.00
2019-03-19T11:35:19.170Z,4120.00
2019-03-19T11:36:19.170Z,4900.00
2019-03-19T11:37:19.149Z,3892.00
2019-03-19T11:38:19.136Z,3884.00
2019-03-19T11:39:19.129Z,3816.00
2019-03-19T11:40:19.114Z,3716.00
2019-03-19T11:41:19.113Z,3588.00
2019-03-19T11:42:19.095Z,3548.00
2019-03-19T11:43:19.081Z,3520.00
2019-03-19T11:44:19.070Z,3476.00
2019-03-19T11:45:19.063Z,3448.00
2019-03-19T11:46:19.059Z,3424.00
2019-03-19T11:47:19.039Z,3412.00
2019-03-19T11:48:19.028Z,3460.00
2019-03-19T11:49:19.017Z,3584.00
2019-03-19T11:50:19.008Z,3520.00
2019-03-19T11:51:19.005Z,3424.00
2019-03-19T11:52:18.983Z,3372.00
2019-03-19T11:53:18.974Z,3316.00
2019-03-19T11:54:18.967Z,3304.00
2019-03-19T11:55:18.960Z,3296.00
2019-03-19T11:56:18.950Z,3312.00
2019-03-19T11:57:18.931Z,3280.00
2019-03-19T11:58:18.919Z,3268.00
2019-03-19T11:59:18.912Z,3244.00
2019-03-19T12:00:18.898Z,3228.00
2019-03-19T12:01:18.900Z,3272.00
2019-03-19T12:02:25.837Z,3404.00
2019-03-19T12:03:19.863Z,3560.00
2019-03-19T12:04:18.854Z,4444.00
2019-03-19T12:05:18.844Z,3896.00
2019-03-19T12:06:18.841Z,3820.00
2019-03-19T12:07:18.830Z,3788.00
2019-03-19T12:08:18.812Z,3752.00
2019-03-19T12:09:18.800Z,3760.00
2019-03-19T12:10:18.791Z,3676.00
2019-03-19T12:11:18.814Z,3648.00
2019-03-19T12:12:18.770Z,3656.00
2019-03-19T12:13:18.760Z,3708.00
2019-03-19T12:14:18.746Z,3700.00
2019-03-19T12:15:18.735Z,5780.00
2019-03-19T12:16:18.725Z,6052.00
2019-03-19T12:17:18.724Z,3884.00
2019-03-19T12:18:18.704Z,3616.00
2019-03-19T12:19:18.693Z,3572.00
2019-03-19T12:20:20.627Z,3540.00
2019-03-19T12:21:18.671Z,3524.00
2019-03-19T12:22:18.672Z,3484.00
2019-03-19T12:23:18.652Z,3484.00
2019-03-19T12:24:18.640Z,3536.00
2019-03-19T12:25:18.630Z,3584.00
2019-03-19T12:26:18.618Z,3656.00
2019-03-19T12:27:18.616Z,3660.00
2019-03-19T12:28:18.598Z,3672.00
2019-03-19T12:29:18.587Z,3692.00
2019-03-19T12:30:23.015Z,5872.00
2019-03-19T12:31:19.564Z,5972.00
2019-03-19T12:32:18.563Z,5368.00